Time;durP1;ratioP1;P1;durP2;ratioP2;P2;SDS_P1;SDS_P2;PMS_P1;PMS_P2;Temp;Humidity;BMP_temperature;BMP_pressure;BME280_temperature;BME280_humidity;BME280_pressure;Samples;Min_cycle;Max_cycle;Signal;HPM_P1;HPM_P2
2021/06/27 00:02:10;;;;;;;;;;;;;;;14.10;51.66;101151.25;1609465;88;20129;-73
2021/06/27 00:04:36;;;;;;;;;;;;;;;14.06;51.73;101147.86;1611832;87;21177;-73
2021/06/27 00:07:03;;;;;;;;;;;;;;;14.05;51.81;101147.89;1615907;87;20210;-73
2021/06/27 00:09:29;;;;;;;;;;;;;;;14.04;51.92;101143.59;1607379;88;20199;-73
2021/06/27 00:11:56;;;;;;;;;;;;;;;14.01;51.97;101150.19;1609280;88;20100;-73
2021/06/27 00:14:22;;;;;;;;;;;;;;;13.99;52.08;101149.36;1609112;87;20125;-73
2021/06/27 00:16:52;;;;;;;;;;;;;;;13.94;52.16;101139.06;1609549;88;20128;-74
2021/06/27 00:19:16;;;;;;;;;;;;;;;13.88;52.28;101145.24;1610336;88;20156;-74
2021/06/27 00:21:42;;;;;;;;;;;;;;;13.87;52.25;101149.17;1609575;87;20157;-73
2021/06/27 00:24:08;;;;;;;;;;;;;;;13.84;52.30;101144.89;1609649;87;20108;-73
2021/06/27 00:26:34;;;;;;;;;;;;;;;13.82;52.36;101143.22;1609557;88;20104;-73
2021/06/27 00:29:00;;;;;;;;;;;;;;;13.79;52.41;101141.53;1609718;87;21273;-73
2021/06/27 00:31:26;;;;;;;;;;;;;;;13.70;52.29;101146.92;1609320;88;20234;-73
2021/06/27 00:33:52;;;;;;;;;;;;;;;13.59;52.60;101143.23;1611809;88;20855;-73
2021/06/27 00:36:19;;;;;;;;;;;;;;;13.58;52.71;101139.37;1609628;87;20167;-73
2021/06/27 00:38:45;;;;;;;;;;;;;;;13.57;52.77;101142.85;1609007;88;20137;-73
2021/06/27 00:41:11;;;;;;;;;;;;;;;13.57;52.89;101145.00;1609405;88;20129;-73
2021/06/27 00:43:37;;;;;;;;;;;;;;;13.56;52.92;101141.14;1609048;88;20128;-73
2021/06/27 00:46:03;;;;;;;;;;;;;;;13.53;52.92;101141.20;1609450;88;20116;-73
2021/06/27 00:48:29;;;;;;;;;;;;;;;13.50;52.97;101139.55;1609344;88;20112;-73
2021/06/27 00:50:57;;;;;;;;;;;;;;;13.49;53.06;101137.84;1609406;88;20179;-73
2021/06/27 00:53:23;;;;;;;;;;;;;;;13.48;53.10;101133.97;1609561;87;20108;-73
2021/06/27 00:55:56;;;;;;;;;;;;;;;13.43;53.14;101137.95;1600247;88;20136;-73
2021/06/27 00:58:32;;;;;;;;;;;;;;;13.37;53.22;101132.02;1608873;87;20116;-73
2021/06/27 01:00:59;;;;;;;;;;;;;;;13.34;53.45;101130.78;1598247;88;20125;-73
2021/06/27 01:03:26;;;;;;;;;;;;;;;13.30;53.59;101129.98;1608761;87;20100;-73
2021/06/27 01:05:52;;;;;;;;;;;;;;;13.32;53.48;101136.00;1611123;87;20129;-73
2021/06/27 01:08:18;;;;;;;;;;;;;;;13.30;53.49;101135.17;1616636;86;20112;-73
2021/06/27 01:10:47;;;;;;;;;;;;;;;13.29;53.48;101137.36;1608383;88;20750;-73
2021/06/27 01:13:15;;;;;;;;;;;;;;;13.27;53.52;101136.97;1609504;88;20093;-73
2021/06/27 01:15:41;;;;;;;;;;;;;;;13.17;53.52;101136.28;1605677;88;20124;-73
2021/06/27 01:18:07;;;;;;;;;;;;;;;13.12;53.77;101140.23;1607486;87;20124;-73
2021/06/27 01:20:38;;;;;;;;;;;;;;;13.11;53.72;101135.92;1609680;87;20092;-73
2021/06/27 01:23:07;;;;;;;;;;;;;;;13.08;53.79;101138.57;1601710;87;20164;-73
2021/06/27 01:25:35;;;;;;;;;;;;;;;13.06;53.86;101139.48;1609505;87;20136;-73
2021/06/27 01:28:02;;;;;;;;;;;;;;;13.03;53.90;101139.09;1602490;87;20720;-73
2021/06/27 01:30:28;;;;;;;;;;;;;;;12.99;53.99;101146.99;1609492;87;21077;-73
2021/06/27 01:32:56;;;;;;;;;;;;;;;12.96;54.00;101145.30;1615866;88;20102;-73
2021/06/27 01:35:24;;;;;;;;;;;;;;;12.86;54.07;101148.50;1611376;87;20100;-73
2021/06/27 01:37:52;;;;;;;;;;;;;;;12.83;54.08;101148.98;1608768;89;20111;-73
2021/06/27 01:40:20;;;;;;;;;;;;;;;12.81;54.14;101142.52;1609134;88;20116;-73
2021/06/27 01:42:47;;;;;;;;;;;;;;;12.79;54.20;101139.54;1607301;88;20109;-73
2021/06/27 01:45:17;;;;;;;;;;;;;;;12.77;54.25;101140.86;1609099;88;20121;-73
2021/06/27 01:47:43;;;;;;;;;;;;;;;12.74;54.37;101137.02;1607419;88;20136;-73
2021/06/27 01:50:10;;;;;;;;;;;;;;;12.72;54.41;101137.48;1608633;88;20147;-73
2021/06/27 01:52:37;;;;;;;;;;;;;;;12.70;54.46;101136.66;1606657;88;20151;-73
2021/06/27 01:55:05;;;;;;;;;;;;;;;12.65;54.49;101137.17;1595714;88;20112;-73
2021/06/27 01:57:31;;;;;;;;;;;;;;;12.62;54.58;101138.95;1607761;88;20112;-73
2021/06/27 01:59:57;;;;;;;;;;;;;;;12.58;54.61;101142.03;1609538;88;20136;-73
2021/06/27 02:02:23;;;;;;;;;;;;;;;12.52;54.64;101141.69;1610214;87;20190;-73
2021/06/27 02:04:50;;;;;;;;;;;;;;;12.48;54.78;101137.44;1608245;88;20227;-73
2021/06/27 02:07:16;;;;;;;;;;;;;;;12.37;54.75;101132.02;1618309;87;20100;-73
2021/06/27 02:09:43;;;;;;;;;;;;;;;12.33;54.94;101132.95;1609625;88;20128;-73
2021/06/27 02:12:09;;;;;;;;;;;;;;;12.35;55.06;101132.48;1597170;88;454161;-73
2021/06/27 02:14:37;;;;;;;;;;;;;;;12.34;55.05;101132.06;1612390;87;20133;-73
2021/06/27 02:17:04;;;;;;;;;;;;;;;12.30;55.16;101129.95;1609582;87;20100;-73
2021/06/27 02:19:31;;;;;;;;;;;;;;;12.28;55.19;101124.38;1598837;88;20431;-73
2021/06/27 02:21:57;;;;;;;;;;;;;;;12.28;55.33;101132.16;1609449;88;20750;-73
2021/06/27 02:24:24;;;;;;;;;;;;;;;12.29;55.39;101129.54;1609260;87;20471;-73
2021/06/27 02:26:50;;;;;;;;;;;;;;;12.27;55.45;101128.70;1609371;88;20520;-73
2021/06/27 02:29:17;;;;;;;;;;;;;;;12.29;55.55;101124.36;1609393;88;20428;-73
2021/06/27 02:31:49;;;;;;;;;;;;;;;12.32;55.56;101127.34;1609387;87;20132;-73
2021/06/27 02:34:10;;;;;;;;;;;;;;;12.31;55.52;101126.92;1621329;88;20743;-73
2021/06/27 02:36:37;;;;;;;;;;;;;;;12.24;55.47;101122.27;1610411;87;20905;-73
2021/06/27 02:39:03;;;;;;;;;;;;;;;12.18;55.51;101129.69;1607361;87;20517;-73
2021/06/27 02:41:29;;;;;;;;;;;;;;;12.15;55.54;101127.14;1608623;87;20612;-73
2021/06/27 02:43:55;;;;;;;;;;;;;;;12.14;55.58;101129.32;1597720;88;21044;-73
2021/06/27 02:46:21;;;;;;;;;;;;;;;12.07;55.40;101129.42;1607457;87;20512;-73
2021/06/27 02:48:47;;;;;;;;;;;;;;;11.97;55.57;101134.31;1607348;87;20194;-73
2021/06/27 02:51:13;;;;;;;;;;;;;;;11.93;55.75;101138.71;1607234;88;20650;-73
2021/06/27 02:53:39;;;;;;;;;;;;;;;11.95;55.89;101131.78;1607198;87;20959;-73
2021/06/27 02:56:08;;;;;;;;;;;;;;;11.96;55.99;101126.16;1607278;87;20167;-73
2021/06/27 02:58:40;;;;;;;;;;;;;;;11.98;56.03;101127.81;1607428;88;20471;-73
2021/06/27 03:01:06;;;;;;;;;;;;;;;11.97;56.02;101131.28;1603047;87;21061;-73
2021/06/27 03:03:33;;;;;;;;;;;;;;;11.99;56.12;101135.15;1607835;87;20650;-73
2021/06/27 03:05:59;;;;;;;;;;;;;;;11.99;56.13;101128.67;1610403;87;20273;-73
2021/06/27 03:08:25;;;;;;;;;;;;;;;12.01;56.31;101128.21;1595821;86;20248;-73
2021/06/27 03:10:51;;;;;;;;;;;;;;;12.03;56.37;101127.31;1607091;87;20920;-73
2021/06/27 03:13:17;;;;;;;;;;;;;;;12.05;56.40;101125.55;1607655;88;20206;-73
2021/06/27 03:15:43;;;;;;;;;;;;;;;12.09;56.44;101122.05;1607496;88;20821;-73
2021/06/27 03:18:09;;;;;;;;;;;;;;;12.12;56.43;101126.33;1607203;87;20198;-73
2021/06/27 03:20:35;;;;;;;;;;;;;;;12.15;56.58;101132.77;1607347;88;20778;-73
2021/06/27 03:23:01;;;;;;;;;;;;;;;12.14;56.31;101138.83;1597738;88;20740;-73
2021/06/27 03:25:29;;;;;;;;;;;;;;;11.98;56.31;101133.44;1607360;88;20184;-73
2021/06/27 03:27:55;;;;;;;;;;;;;;;11.99;56.69;101140.34;1607255;88;20939;-73
2021/06/27 03:30:22;;;;;;;;;;;;;;;12.08;56.81;101145.39;1607069;87;20557;-73
2021/06/27 03:32:47;;;;;;;;;;;;;;;12.10;56.78;101143.64;1609778;87;20592;-73
2021/06/27 03:35:14;;;;;;;;;;;;;;;12.15;56.94;101146.59;1608594;87;20442;-73
2021/06/27 03:37:48;;;;;;;;;;;;;;;12.21;56.94;101146.50;1607444;87;20195;-73
2021/06/27 03:40:09;;;;;;;;;;;;;;;12.28;57.03;101149.02;1650713;85;20594;-73
2021/06/27 03:42:35;;;;;;;;;;;;;;;12.35;57.05;101148.05;1652539;85;20116;-72
2021/06/27 03:45:01;;;;;;;;;;;;;;;12.41;57.11;101149.25;1639036;85;20218;-72
2021/06/27 03:47:27;;;;;;;;;;;;;;;12.47;57.13;101147.86;1652357;85;20506;-73
2021/06/27 03:49:53;;;;;;;;;;;;;;;12.53;57.17;101146.44;1651807;85;20214;-73
2021/06/27 03:52:19;;;;;;;;;;;;;;;12.59;57.20;101150.23;1651877;85;20463;-73
2021/06/27 03:54:45;;;;;;;;;;;;;;;12.64;57.22;101145.83;1651982;85;20209;-73
2021/06/27 03:57:11;;;;;;;;;;;;;;;12.68;57.29;101144.05;1651916;85;20446;-73
2021/06/27 03:59:37;;;;;;;;;;;;;;;12.71;57.35;101144.00;1651698;85;20230;-73
2021/06/27 04:02:03;;;;;;;;;;;;;;;12.78;57.46;101142.58;1650665;85;20529;-73
2021/06/27 04:04:29;;;;;;;;;;;;;;;12.85;57.51;101144.63;1653422;85;20225;-73
2021/06/27 04:06:55;;;;;;;;;;;;;;;12.93;57.60;101146.66;1653769;85;20276;-73
2021/06/27 04:09:21;;;;;;;;;;;;;;;13.08;57.82;101148.09;1651675;85;20178;-73
2021/06/27 04:11:47;;;;;;;;;;;;;;;13.36;58.09;101155.84;1651671;85;20222;-73
2021/06/27 04:14:13;;;;;;;;;;;;;;;13.76;58.25;101145.94;1636523;85;20281;-73
2021/06/27 04:16:39;;;;;;;;;;;;;;;14.18;58.05;101153.24;1651743;85;20221;-73
2021/06/27 04:19:05;;;;;;;;;;;;;;;14.46;57.79;101145.70;1650562;85;20202;-73
2021/06/27 04:21:31;;;;;;;;;;;;;;;14.62;57.67;101143.56;1651632;85;20273;-73
2021/06/27 04:23:58;;;;;;;;;;;;;;;14.70;57.65;101145.53;1651626;85;20127;-73
2021/06/27 04:26:24;;;;;;;;;;;;;;;14.84;57.75;101146.91;1651695;85;20484;-73
2021/06/27 04:28:50;;;;;;;;;;;;;;;15.04;57.77;101137.73;1645409;85;20982;-73
2021/06/27 04:31:16;;;;;;;;;;;;;;;15.17;57.65;101135.19;1639781;85;20253;-73
2021/06/27 04:33:42;;;;;;;;;;;;;;;15.28;57.61;101133.59;1636616;86;20692;-73
2021/06/27 04:36:08;;;;;;;;;;;;;;;15.33;57.61;101133.03;1651780;85;20195;-73
2021/06/27 04:38:34;;;;;;;;;;;;;;;15.40;57.61;101143.69;1651831;85;20277;-73
2021/06/27 04:41:00;;;;;;;;;;;;;;;15.51;57.77;101145.55;1651483;85;20245;-73
2021/06/27 04:43:26;;;;;;;;;;;;;;;15.66;57.79;101145.13;1651123;85;20257;-72
2021/06/27 04:45:52;;;;;;;;;;;;;;;15.80;57.73;101142.98;1651532;85;21288;-73
2021/06/27 04:48:18;;;;;;;;;;;;;;;15.90;57.75;101133.13;1654468;85;20187;-73
2021/06/27 04:50:46;;;;;;;;;;;;;;;16.05;57.74;101130.52;1651543;85;20204;-73
2021/06/27 04:53:13;;;;;;;;;;;;;;;16.20;57.79;101135.23;1653769;85;20632;-73
2021/06/27 04:55:39;;;;;;;;;;;;;;;16.38;57.82;101132.51;1602966;86;20542;-73
2021/06/27 04:58:06;;;;;;;;;;;;;;;16.60;57.85;101142.67;1647561;85;20111;-73
2021/06/27 05:00:32;;;;;;;;;;;;;;;16.91;57.96;101145.13;1652509;85;20131;-73
2021/06/27 05:03:00;;;;;;;;;;;;;;;17.38;58.12;101143.47;1651177;85;20151;-73
2021/06/27 05:05:26;;;;;;;;;;;;;;;18.04;57.95;101143.20;1653181;85;20120;-73
2021/06/27 05:07:52;;;;;;;;;;;;;;;18.72;57.82;101143.97;1656437;85;20289;-73
2021/06/27 05:10:18;;;;;;;;;;;;;;;19.38;57.60;101142.84;1652784;85;20186;-73
2021/06/27 05:12:44;;;;;;;;;;;;;;;20.04;57.01;101138.09;1626111;86;20198;-73
2021/06/27 05:15:12;;;;;;;;;;;;;;;20.71;56.85;101141.41;1637715;86;20211;-73
2021/06/27 05:17:38;;;;;;;;;;;;;;;21.34;56.48;101141.67;1638219;86;20132;-73
2021/06/27 05:20:05;;;;;;;;;;;;;;;21.91;56.36;101141.25;1636787;86;20186;-73
2021/06/27 05:22:31;;;;;;;;;;;;;;;22.45;55.81;101139.96;1633141;86;20185;-73
2021/06/27 05:24:57;;;;;;;;;;;;;;;22.97;55.45;101143.06;1636099;85;20194;-73
2021/06/27 05:27:23;;;;;;;;;;;;;;;23.49;55.36;101141.22;1639016;86;20348;-73
2021/06/27 05:29:49;;;;;;;;;;;;;;;24.11;55.09;101140.40;1630336;85;21458;-73
2021/06/27 05:32:15;;;;;;;;;;;;;;;24.72;54.94;101142.53;1635452;86;20792;-73
2021/06/27 05:34:41;;;;;;;;;;;;;;;25.23;54.84;101147.06;1638069;86;20207;-73
2021/06/27 05:37:07;;;;;;;;;;;;;;;25.76;54.56;101142.47;1641933;86;20198;-73
2021/06/27 05:39:33;;;;;;;;;;;;;;;26.28;54.43;101152.31;1634614;86;20212;-73
2021/06/27 05:41:59;;;;;;;;;;;;;;;26.76;54.00;101149.64;1638880;86;20252;-73
2021/06/27 05:44:25;;;;;;;;;;;;;;;27.20;53.84;101152.90;1612866;86;20319;-73
2021/06/27 05:46:51;;;;;;;;;;;;;;;27.61;53.66;101158.13;1637475;86;20204;-74
2021/06/27 05:49:17;;;;;;;;;;;;;;;27.76;53.40;101152.09;1113681;85;10000862;-74
2021/06/27 05:51:43;;;;;;;;;;;;;;;27.86;53.21;101150.39;1643270;85;20114;-74
2021/06/27 05:54:09;;;;;;;;;;;;;;;28.12;53.39;101147.78;1648917;86;20133;-73
2021/06/27 05:56:36;;;;;;;;;;;;;;;28.41;53.04;101148.58;1649353;86;20088;-73
2021/06/27 05:59:03;;;;;;;;;;;;;;;28.83;52.96;101142.34;1651417;86;20140;-73
2021/06/27 06:01:29;;;;;;;;;;;;;;;29.35;52.52;101140.53;1652534;86;20095;-73
2021/06/27 06:03:55;;;;;;;;;;;;;;;29.73;52.13;101141.67;1654384;86;20124;-73
2021/06/27 06:06:21;;;;;;;;;;;;;;;29.77;51.95;101141.76;1601670;88;20194;-73
2021/06/27 06:08:47;;;;;;;;;;;;;;;29.68;51.61;101135.91;1608676;88;20136;-73
2021/06/27 06:11:14;;;;;;;;;;;;;;;29.91;51.92;101137.38;1608690;89;20121;-72
2021/06/27 06:13:41;;;;;;;;;;;;;;;29.85;51.72;101140.59;1608284;88;20116;-73
2021/06/27 06:16:07;;;;;;;;;;;;;;;30.13;51.51;101149.19;1607354;87;20154;-73
2021/06/27 06:18:34;;;;;;;;;;;;;;;30.62;50.77;101144.73;1608319;89;20125;-73
2021/06/27 06:21:00;;;;;;;;;;;;;;;30.78;50.63;101154.81;1574898;89;20116;-73
2021/06/27 06:23:26;;;;;;;;;;;;;;;31.27;50.36;101151.91;1607281;88;20171;-73
2021/06/27 06:25:53;;;;;;;;;;;;;;;31.57;49.59;101144.63;1608257;89;20133;-73
2021/06/27 06:28:19;;;;;;;;;;;;;;;31.88;49.36;101152.72;1598553;88;20167;-74
2021/06/27 06:30:45;;;;;;;;;;;;;;;32.15;49.03;101152.34;1608990;88;20159;-73
2021/06/27 06:33:11;;;;;;;;;;;;;;;32.29;48.63;101155.84;1614164;87;20223;-73
2021/06/27 06:35:38;;;;;;;;;;;;;;;32.51;48.26;101163.92;1606404;88;20155;-73
2021/06/27 06:38:05;;;;;;;;;;;;;;;32.50;47.88;101167.59;1599751;88;20139;-72
2021/06/27 06:40:31;;;;;;;;;;;;;;;32.54;47.44;101160.44;1598697;88;20102;-72
2021/06/27 06:42:57;;;;;;;;;;;;;;;32.59;47.23;101166.67;1634515;86;20169;-72
2021/06/27 06:45:23;;;;;;;;;;;;;;;32.52;47.02;101162.42;1634754;86;20181;-72
2021/06/27 06:47:49;;;;;;;;;;;;;;;32.43;46.34;101162.00;1640640;85;20131;-72
2021/06/27 06:50:15;;;;;;;;;;;;;;;32.49;46.02;101161.89;1635686;86;20170;-72
2021/06/27 06:52:41;;;;;;;;;;;;;;;32.48;45.87;101160.20;1638996;86;20201;-72
2021/06/27 06:55:08;;;;;;;;;;;;;;;32.30;45.32;101161.53;1649777;86;20172;-73
2021/06/27 06:57:34;;;;;;;;;;;;;;;32.07;45.07;101162.47;1652477;86;20411;-73
2021/06/27 06:59:59;;;;;;;;;;;;;;;32.09;44.97;101156.47;1647788;86;20916;-73
2021/06/27 07:02:26;;;;;;;;;;;;;;;31.98;44.69;101155.83;1645244;86;20175;-73
2021/06/27 07:04:52;;;;;;;;;;;;;;;31.85;44.33;101157.02;1637182;86;20107;-73
2021/06/27 07:07:18;;;;;;;;;;;;;;;31.73;44.08;101147.52;1653176;86;20155;-73
2021/06/27 07:09:44;;;;;;;;;;;;;;;31.52;44.05;101151.76;1649953;85;20172;-73
2021/06/27 07:12:10;;;;;;;;;;;;;;;31.60;43.75;101137.66;1645398;85;20161;-73
2021/06/27 07:14:36;;;;;;;;;;;;;;;31.68;43.31;101141.80;1637976;86;20114;-72
2021/06/27 07:17:02;;;;;;;;;;;;;;;31.57;43.14;101140.62;1651380;86;20877;-72
2021/06/27 07:19:28;;;;;;;;;;;;;;;31.50;42.98;101143.04;1646167;86;20110;-72
2021/06/27 07:21:54;;;;;;;;;;;;;;;31.51;42.60;101140.72;1651901;85;20872;-72
2021/06/27 07:24:20;;;;;;;;;;;;;;;31.58;42.56;101138.30;1652199;85;20158;-72
2021/06/27 07:26:48;;;;;;;;;;;;;;;31.74;42.46;101138.50;1652927;86;20198;-73
2021/06/27 07:29:14;;;;;;;;;;;;;;;31.99;42.29;101140.12;1650728;86;20787;-73
2021/06/27 07:31:40;;;;;;;;;;;;;;;32.06;42.09;101144.73;1651354;85;20146;-73
2021/06/27 07:34:06;;;;;;;;;;;;;;;32.08;41.95;101144.08;1650112;86;20236;-73
2021/06/27 07:36:32;;;;;;;;;;;;;;;32.18;41.79;101146.69;1649335;86;20147;-73
2021/06/27 07:38:58;;;;;;;;;;;;;;;32.30;41.77;101143.30;1614075;86;20412;-76
2021/06/27 07:41:24;;;;;;;;;;;;;;;32.23;41.70;101135.88;1650447;86;20174;-76
2021/06/27 07:43:50;;;;;;;;;;;;;;;32.17;41.19;101143.17;1650884;85;20215;-76
2021/06/27 07:46:17;;;;;;;;;;;;;;;32.18;41.31;101144.02;1648917;85;20136;-74
2021/06/27 07:48:43;;;;;;;;;;;;;;;32.42;41.07;101142.08;1650392;84;155038;-74
2021/06/27 07:51:10;;;;;;;;;;;;;;;32.70;40.84;101134.80;1651350;85;20088;-73
2021/06/27 07:53:36;;;;;;;;;;;;;;;32.69;40.46;101140.64;1648208;86;20124;-74
2021/06/27 07:56:03;;;;;;;;;;;;;;;32.79;40.21;101142.73;1647279;86;20112;-74
2021/06/27 07:58:29;;;;;;;;;;;;;;;32.88;39.76;101145.82;1634750;86;20132;-74
2021/06/27 08:00:55;;;;;;;;;;;;;;;32.71;39.49;101148.53;1650501;85;21440;-74
2021/06/27 08:03:21;;;;;;;;;;;;;;;32.35;38.99;101141.00;1651145;86;20221;-74
2021/06/27 08:05:47;;;;;;;;;;;;;;;32.01;39.09;101143.00;1635257;85;20653;-74
2021/06/27 08:08:14;;;;;;;;;;;;;;;31.85;39.06;101140.98;1649736;86;20159;-74
2021/06/27 08:10:42;;;;;;;;;;;;;;;31.80;38.78;101135.73;1649370;86;20130;-74
2021/06/27 08:13:08;;;;;;;;;;;;;;;31.49;38.70;101136.50;1651104;85;20518;-74
2021/06/27 08:15:34;;;;;;;;;;;;;;;31.38;38.72;101144.22;1652796;85;20100;-74
2021/06/27 08:18:01;;;;;;;;;;;;;;;31.32;38.43;101138.11;1657147;85;20168;-74
2021/06/27 08:20:28;;;;;;;;;;;;;;;31.12;38.00;101141.83;1653430;85;20131;-74
2021/06/27 08:22:55;;;;;;;;;;;;;;;30.90;37.97;101140.33;1651182;85;20127;-74
2021/06/27 08:25:21;;;;;;;;;;;;;;;30.68;37.98;101145.48;1647642;86;20157;-74
2021/06/27 08:27:48;;;;;;;;;;;;;;;30.48;37.88;101131.28;1651184;86;20088;-74
2021/06/27 08:30:15;;;;;;;;;;;;;;;30.24;37.81;101129.52;1650937;86;20128;-74
2021/06/27 08:32:46;;;;;;;;;;;;;;;30.13;37.99;101132.34;1649542;86;20734;-74
2021/06/27 08:35:16;;;;;;;;;;;;;;;30.06;37.76;101129.87;1644642;86;20096;-74
2021/06/27 08:37:42;;;;;;;;;;;;;;;30.00;37.59;101131.27;1652523;86;20111;-74
2021/06/27 08:40:09;;;;;;;;;;;;;;;29.81;37.29;101132.02;1650199;86;20128;-74
2021/06/27 08:42:39;;;;;;;;;;;;;;;29.65;37.26;101138.35;1648011;86;20140;-75
2021/06/27 08:45:10;;;;;;;;;;;;;;;29.65;37.25;101131.20;1629392;86;20107;-75
2021/06/27 08:47:36;;;;;;;;;;;;;;;29.55;36.94;101130.84;1648280;85;20158;-75
2021/06/27 08:50:05;;;;;;;;;;;;;;;29.29;36.72;101125.08;1634895;86;20104;-75
2021/06/27 08:52:32;;;;;;;;;;;;;;;29.12;36.73;101126.53;1645687;85;20115;-75
2021/06/27 08:54:58;;;;;;;;;;;;;;;29.01;36.60;101125.30;1635623;86;20132;-75
2021/06/27 08:57:24;;;;;;;;;;;;;;;28.95;36.50;101120.50;1652395;85;20203;-75
2021/06/27 08:59:52;;;;;;;;;;;;;;;29.15;36.56;101120.09;1652833;85;20124;-75
2021/06/27 09:02:18;;;;;;;;;;;;;;;29.61;36.32;101124.48;1635959;85;20427;-75
2021/06/27 09:04:44;;;;;;;;;;;;;;;30.14;36.26;101120.69;1651804;85;20166;-75
2021/06/27 09:07:28;;;;;;;;;;;;;;;30.64;36.43;101120.08;1639864;86;20128;-75
2021/06/27 09:09:55;;;;;;;;;;;;;;;31.05;36.24;101122.02;1646933;85;20422;-75
2021/06/27 09:12:21;;;;;;;;;;;;;;;31.55;36.05;101120.72;1634268;86;20135;-75
2021/06/27 09:14:47;;;;;;;;;;;;;;;32.03;35.96;101112.08;1629227;86;20157;-75
2021/06/27 09:17:18;;;;;;;;;;;;;;;32.33;35.77;101119.74;1634009;86;20124;-76
2021/06/27 09:19:56;;;;;;;;;;;;;;;32.42;35.61;101115.30;1636665;84;623342;-75
2021/06/27 09:22:25;;;;;;;;;;;;;;;32.55;35.56;101118.44;1633436;87;20090;-75
2021/06/27 09:24:52;;;;;;;;;;;;;;;32.38;35.78;101125.48;1632007;87;20439;-76
2021/06/27 09:27:24;;;;;;;;;;;;;;;31.62;35.31;101120.97;1633898;87;20102;-75
2021/06/27 09:29:53;;;;;;;;;;;;;;;31.36;35.29;101115.45;1632397;87;20110;-76
2021/06/27 09:32:24;;;;;;;;;;;;;;;31.02;35.19;101109.80;1652396;86;20133;-76
2021/06/27 09:34:51;;;;;;;;;;;;;;;30.42;35.16;101099.82;1634390;86;20090;-76
2021/06/27 09:37:28;;;;;;;;;;;;;;;29.95;35.10;101098.80;1634953;86;20114;-75
2021/06/27 09:39:58;;;;;;;;;;;;;;;29.52;34.86;101099.97;1636717;86;20118;-75
2021/06/27 09:42:25;;;;;;;;;;;;;;;29.08;34.77;101101.16;1651457;86;20564;-74
2021/06/27 09:45:03;;;;;;;;;;;;;;;28.69;34.61;101094.72;1639154;86;20130;-75
2021/06/27 09:47:30;;;;;;;;;;;;;;;28.33;34.51;101092.86;1638726;86;20145;-75
2021/06/27 09:49:56;;;;;;;;;;;;;;;27.92;34.48;101096.25;1639335;87;20105;-75
2021/06/27 09:52:39;;;;;;;;;;;;;;;27.65;34.35;101091.82;1635734;86;20668;-75
2021/06/27 09:55:10;;;;;;;;;;;;;;;27.44;34.39;101085.07;1636915;86;20109;-75
2021/06/27 09:57:37;;;;;;;;;;;;;;;27.27;34.17;101077.10;1639120;87;20089;-75
2021/06/27 10:00:30;;;;;;;;;;;;;;;27.13;34.26;101080.47;1634409;86;20430;-75
2021/06/27 10:03:04;;;;;;;;;;;;;;;27.13;34.38;101083.12;1639937;86;20105;-75
2021/06/27 10:05:30;;;;;;;;;;;;;;;27.13;34.00;101074.68;1639182;86;20126;-75
2021/06/27 10:07:56;;;;;;;;;;;;;;;27.00;34.09;101073.97;1634727;86;20142;-75
2021/06/27 10:10:22;;;;;;;;;;;;;;;26.88;33.94;101077.06;1639549;86;20198;-75
2021/06/27 10:12:49;;;;;;;;;;;;;;;26.82;34.09;101069.56;1639496;86;20102;-75
2021/06/27 10:15:15;;;;;;;;;;;;;;;26.85;34.02;101068.48;1639210;87;20113;-75
2021/06/27 10:17:43;;;;;;;;;;;;;;;26.81;34.02;101063.89;1639366;86;20109;-75
2021/06/27 10:20:11;;;;;;;;;;;;;;;26.80;33.99;101073.30;1638930;86;20130;-75
2021/06/27 10:22:38;;;;;;;;;;;;;;;26.66;33.94;101069.05;1631394;87;20110;-75
2021/06/27 10:25:08;;;;;;;;;;;;;;;26.55;34.16;101071.19;1638332;86;20118;-75
2021/06/27 10:27:34;;;;;;;;;;;;;;;26.54;34.07;101062.86;1639598;86;20118;-75
2021/06/27 10:30:01;;;;;;;;;;;;;;;26.43;34.12;101063.34;1639547;86;20110;-75
2021/06/27 10:32:27;;;;;;;;;;;;;;;26.30;34.07;101062.89;1641461;86;20449;-75
2021/06/27 10:34:55;;;;;;;;;;;;;;;26.09;34.07;101062.31;1641530;86;20442;-75
2021/06/27 10:37:27;;;;;;;;;;;;;;;25.91;34.07;101064.05;1638600;86;20590;-75
2021/06/27 10:40:04;;;;;;;;;;;;;;;25.77;34.25;101058.06;1639557;87;20433;-75
2021/06/27 10:42:50;;;;;;;;;;;;;;;25.67;34.16;101056.08;1633789;87;20114;-75
2021/06/27 10:45:21;;;;;;;;;;;;;;;25.50;34.32;101055.56;1634000;87;20371;-75
2021/06/27 10:47:47;;;;;;;;;;;;;;;25.45;34.42;101046.66;1622396;87;20153;-75
2021/06/27 10:50:15;;;;;;;;;;;;;;;25.49;34.48;101046.77;1626455;87;20153;-75
2021/06/27 10:52:56;;;;;;;;;;;;;;;25.63;34.61;101042.66;1634089;87;20126;-75
2021/06/27 10:55:41;;;;;;;;;;;;;;;25.88;34.48;101040.91;1633937;87;20098;-75
2021/06/27 10:58:16;;;;;;;;;;;;;;;26.02;34.26;101040.23;1633696;87;20098;-75
2021/06/27 11:01:00;;;;;;;;;;;;;;;26.16;34.31;101044.99;1633868;87;20453;-75
2021/06/27 11:03:33;;;;;;;;;;;;;;;26.17;34.35;101046.69;1644663;86;20128;-75
2021/06/27 11:06:02;;;;;;;;;;;;;;;26.15;34.39;101042.83;1617457;87;36324;-75
2021/06/27 11:08:31;;;;;;;;;;;;;;;26.23;34.56;101040.93;1633319;87;20543;-75
2021/06/27 11:11:00;;;;;;;;;;;;;;;26.29;34.46;101039.14;1634048;87;20127;-75
2021/06/27 11:13:27;;;;;;;;;;;;;;;26.34;34.60;101034.38;1634897;86;20137;-75
2021/06/27 11:16:01;;;;;;;;;;;;;;;26.36;34.50;101036.43;1633926;87;20109;-76
2021/06/27 11:18:44;;;;;;;;;;;;;;;26.37;34.54;101040.77;1634044;87;20126;-75
2021/06/27 11:21:19;;;;;;;;;;;;;;;26.23;34.50;101036.47;1634813;87;20141;-75
2021/06/27 11:23:50;;;;;;;;;;;;;;;26.26;34.51;101037.56;1633988;87;20110;-75
2021/06/27 11:26:39;;;;;;;;;;;;;;;26.41;34.78;101035.61;1626572;87;20126;-75
2021/06/27 11:29:24;;;;;;;;;;;;;;;26.63;34.66;101029.00;1633806;87;20130;-75
2021/06/27 11:31:53;;;;;;;;;;;;;;;26.79;34.62;101030.00;1633923;86;20157;-75
2021/06/27 11:34:28;;;;;;;;;;;;;;;26.95;34.65;101026.52;1635090;86;20221;-75
2021/06/27 11:36:56;;;;;;;;;;;;;;;27.06;34.56;101037.63;1630973;87;20109;-75
2021/06/27 11:39:45;;;;;;;;;;;;;;;27.11;34.49;101036.78;1633994;87;20114;-75
2021/06/27 11:42:30;;;;;;;;;;;;;;;27.14;34.58;101042.34;1633603;86;20135;-74
2021/06/27 11:45:09;;;;;;;;;;;;;;;27.17;34.73;101038.95;1634229;87;20114;-75
2021/06/27 11:47:53;;;;;;;;;;;;;;;27.26;34.69;101036.06;1633905;87;22079;-75
2021/06/27 11:50:25;;;;;;;;;;;;;;;27.25;34.73;101034.38;1631129;87;20113;-75
2021/06/27 11:52:54;;;;;;;;;;;;;;;27.19;34.81;101029.55;1617124;87;20503;-75
2021/06/27 11:55:30;;;;;;;;;;;;;;;27.09;34.85;101031.23;1634181;87;20117;-75
2021/06/27 11:57:57;;;;;;;;;;;;;;;27.10;35.09;101027.61;1633932;87;20098;-75
2021/06/27 12:00:38;;;;;;;;;;;;;;;27.12;34.91;101025.69;1612322;87;20125;-75
2021/06/27 12:03:07;;;;;;;;;;;;;;;27.10;35.00;101023.63;1631076;87;20156;-75
2021/06/27 12:05:34;;;;;;;;;;;;;;;27.00;34.83;101023.54;1634558;86;20118;-75
2021/06/27 12:08:08;;;;;;;;;;;;;;;26.95;34.94;101020.36;1633889;87;20114;-75
2021/06/27 12:10:35;;;;;;;;;;;;;;;26.85;35.08;101017.58;1634922;86;20150;-75
2021/06/27 12:13:04;;;;;;;;;;;;;;;26.71;34.93;101021.78;1632360;87;20117;-75
2021/06/27 12:15:33;;;;;;;;;;;;;;;26.58;34.97;101015.73;1634864;86;20117;-75
2021/06/27 12:18:02;;;;;;;;;;;;;;;26.44;35.04;101019.46;1619151;87;20131;-75
2021/06/27 12:20:31;;;;;;;;;;;;;;;26.42;35.22;101013.42;1633948;87;20110;-75
2021/06/27 12:23:00;;;;;;;;;;;;;;;26.44;35.08;101014.64;1633788;87;20137;-75
2021/06/27 12:25:38;;;;;;;;;;;;;;;26.37;35.03;101011.13;1635187;86;20161;-75
2021/06/27 12:28:08;;;;;;;;;;;;;;;26.32;35.11;101011.95;1626342;87;20122;-75
2021/06/27 12:30:50;;;;;;;;;;;;;;;26.30;35.21;101012.52;1635170;86;20150;-75
2021/06/27 12:33:24;;;;;;;;;;;;;;;26.34;35.18;101001.23;1628615;87;20173;-75
2021/06/27 12:35:54;;;;;;;;;;;;;;;26.45;35.14;100997.77;1629425;87;20125;-75
2021/06/27 12:38:21;;;;;;;;;;;;;;;26.53;35.10;100996.66;1628902;87;20206;-75
2021/06/27 12:40:50;;;;;;;;;;;;;;;26.60;35.12;101000.06;1631080;86;20114;-75